Lubbock, TX (79401)

7:04 PM CST on December 09, 2016 (GMT -0600)
Atkins Middle School | | Change Station

Elev 3232 ft 33.54 °N, 101.86 °W | Updated 26 seconds ago

Partly Cloudy
Partly Cloudy
34.9 °F
Feels Like 35 °F
N
0.2
Wind Variable Wind from SSE
Gusts 2.5 mph

Today
High -- | Low -- °F
--% Chance of Precip.
Yesterday
High -- | Low -- °F
Precip. -- in
Pressure 30.29 in
Visibility 10.0 miles
Clouds Few 3800 ft
Few 30000 ft
Windchill 35 °F
Dew Point 29 °F
Humidity 80%
Rainfall 0.00 in
Snow Depth Not available.
7:40 AM 5:39 PM
Waxing Gibbous, 78% visible
METAR KLBB 100053Z 16010KT 10SM FEW038 FEW300 01/M02 A3025 RMK AO2 SLP257 T00111022
Pressure 30.29 in
Visibility 10.0 miles
Clouds Few 3800 ft
Few 30000 ft
Windchill 35 °F
Dew Point 29 °F
Humidity 80%
Rainfall 0.00 in
Snow Depth Not available.
7:40 AM 5:39 PM
Waxing Gibbous, 78% visible
METAR KLBB 100053Z 16010KT 10SM FEW038 FEW300 01/M02 A3025 RMK AO2 SLP257 T00111022

10-Day Weather Forecast

Almanac

Astronomy

Dec. 09, 2016 Rise Set
Actual Time
Civil Twilight
Nautical Twilight
Astronomical Twilight
Moon
Length of Visible Light
Length of Day
Tomorrow will be .
, % of the Moon is Illuminated

Today's Extremes

State Highs State Lows

Community

WunderPhotos

Upload Photos

1,956,534 photos uploaded!

WunderBlog® & News

Nearby

Air Quality

  Air Quality AQ Index Pollutant
Not available.

Snow Depth

Station Depth Elevation

Earthquake Activity

City Distance Mag. Time & Date
Minimum magnitude displayed is 2.5.

Coastal Water Temperatures

Place Temperature

Stations

Nearby Weather Stations

Station Location Temp. Windchill Dew Point Humidity Wind Precip. Elev Updated Type
                   

Watches & Warnings

There are currently no watches in effect.